Time;durP1;ratioP1;P1;durP2;ratioP2;P2;SDS_P1;SDS_P2;PMS_P1;PMS_P2;Temp;Humidity;BMP_temperature;BMP_pressure;BME280_temperature;BME280_humidity;BME280_pressure;Samples;Min_cycle;Max_cycle;Signal;HPM_P1;HPM_P2
2022/04/04 00:00:42;;;;;;;9.77;6.82;;;;;;;;;;5016525;28;20050;-81
2022/04/04 00:03:11;;;;;;;10.10;6.32;;;;;;;;;;5015582;28;20081;-79
2022/04/04 00:05:39;;;;;;;10.70;6.60;;;;;;;;;;5016265;28;20066;-80
2022/04/04 00:08:06;;;;;;;11.02;6.22;;;;;;;;;;5012531;28;20073;-80
2022/04/04 00:10:33;;;;;;;12.85;6.55;;;;;;;;;;5011822;28;20077;-82
2022/04/04 00:13:00;;;;;;;10.82;6.63;;;;;;;;;;5011777;28;20078;-79
2022/04/04 00:15:27;;;;;;;8.48;5.93;;;;;;;;;;5010810;28;20054;-81
2022/04/04 00:17:55;;;;;;;8.85;5.80;;;;;;;;;;5011144;28;20070;-81
2022/04/04 00:20:23;;;;;;;10.95;6.43;;;;;;;;;;5011080;28;20050;-81
2022/04/04 00:22:50;;;;;;;11.98;6.38;;;;;;;;;;5011417;28;20093;-81
2022/04/04 00:25:17;;;;;;;10.90;6.40;;;;;;;;;;5010545;28;20046;-81
2022/04/04 00:27:44;;;;;;;9.45;6.43;;;;;;;;;;5009999;28;20077;-80
2022/04/04 00:30:12;;;;;;;8.85;5.70;;;;;;;;;;5009135;28;20042;-80
2022/04/04 00:32:38;;;;;;;10.10;6.10;;;;;;;;;;5008621;28;20046;-81
2022/04/04 00:35:06;;;;;;;9.68;5.88;;;;;;;;;;5004707;28;20046;-80
2022/04/04 00:37:34;;;;;;;7.97;5.45;;;;;;;;;;5004631;28;20093;-80
2022/04/04 00:40:01;;;;;;;10.07;6.00;;;;;;;;;;5010020;28;20042;-81
2022/04/04 00:42:28;;;;;;;10.68;5.53;;;;;;;;;;5011604;28;20046;-79
2022/04/04 00:44:55;;;;;;;11.60;6.63;;;;;;;;;;5010142;28;20046;-82
2022/04/04 00:47:21;;;;;;;9.48;5.63;;;;;;;;;;5014820;23;20054;-80
2022/04/04 00:49:49;;;;;;;10.30;5.63;;;;;;;;;;5005983;28;20077;-81
2022/04/04 00:52:15;;;;;;;10.30;5.90;;;;;;;;;;5018899;28;20062;-79
2022/04/04 00:54:44;;;;;;;9.35;5.65;;;;;;;;;;5016464;28;20604;-79
2022/04/04 00:57:11;;;;;;;9.55;5.70;;;;;;;;;;5012136;28;20043;-79
2022/04/04 00:59:38;;;;;;;10.60;5.72;;;;;;;;;;5006301;28;20188;-81
2022/04/04 01:02:06;;;;;;;9.98;6.00;;;;;;;;;;5005933;28;20113;-79
2022/04/04 01:04:33;;;;;;;10.63;5.65;;;;;;;;;;5008012;28;20058;-79
2022/04/04 01:07:00;;;;;;;8.55;5.60;;;;;;;;;;5006606;28;20046;-80
2022/04/04 01:09:27;;;;;;;11.02;6.15;;;;;;;;;;5005907;28;20047;-80
2022/04/04 01:12:06;;;;;;;9.18;5.68;;;;;;;;;;5008361;28;20613;-79
2022/04/04 01:14:34;;;;;;;8.32;5.10;;;;;;;;;;5008140;28;20092;-80
2022/04/04 01:17:01;;;;;;;9.05;5.93;;;;;;;;;;5008155;28;20050;-80
2022/04/04 01:19:27;;;;;;;10.93;6.35;;;;;;;;;;5002674;28;20134;-80
2022/04/04 01:21:54;;;;;;;8.82;5.72;;;;;;;;;;5005084;28;20497;-80
2022/04/04 01:24:23;;;;;;;10.57;6.00;;;;;;;;;;5006254;28;20097;-80
2022/04/04 01:26:51;;;;;;;10.40;5.80;;;;;;;;;;4999982;28;20050;-81
2022/04/04 01:29:19;;;;;;;10.35;6.22;;;;;;;;;;4998909;28;20082;-80
2022/04/04 01:31:46;;;;;;;10.27;6.50;;;;;;;;;;4997685;28;20042;-80
2022/04/04 01:34:13;;;;;;;10.25;5.70;;;;;;;;;;4998104;28;20050;-79
2022/04/04 01:36:40;;;;;;;10.70;6.60;;;;;;;;;;4997311;28;20527;-81
2022/04/04 01:39:06;;;;;;;10.40;5.90;;;;;;;;;;4998829;28;20104;-81
2022/04/04 01:41:34;;;;;;;10.85;6.00;;;;;;;;;;4998635;28;20599;-81
2022/04/04 01:44:01;;;;;;;12.60;6.32;;;;;;;;;;4998555;28;20068;-81
2022/04/04 01:46:28;;;;;;;9.45;5.90;;;;;;;;;;4998046;28;20444;-81
2022/04/04 01:48:58;;;;;;;9.55;5.45;;;;;;;;;;4997794;28;20051;-81
2022/04/04 01:51:25;;;;;;;10.48;6.30;;;;;;;;;;4998246;28;20077;-81
2022/04/04 01:53:53;;;;;;;9.00;5.63;;;;;;;;;;4998313;28;20055;-81
2022/04/04 01:56:20;;;;;;;9.23;5.57;;;;;;;;;;4997486;28;20050;-81
2022/04/04 01:58:48;;;;;;;9.68;5.80;;;;;;;;;;5000884;28;20046;-79
2022/04/04 02:01:18;;;;;;;10.02;6.10;;;;;;;;;;5004065;28;20170;-79
2022/04/04 02:03:48;;;;;;;9.90;6.28;;;;;;;;;;5004458;28;20050;-80
2022/04/04 02:06:15;;;;;;;11.27;5.93;;;;;;;;;;5004068;28;20042;-80
2022/04/04 02:08:42;;;;;;;9.25;5.47;;;;;;;;;;4998411;28;20509;-80
2022/04/04 02:11:09;;;;;;;10.45;5.45;;;;;;;;;;4997812;28;20043;-80
2022/04/04 02:13:36;;;;;;;10.20;5.57;;;;;;;;;;4997582;28;20047;-80
2022/04/04 02:16:06;;;;;;;9.85;5.18;;;;;;;;;;4996702;28;20160;-80
2022/04/04 02:18:34;;;;;;;8.93;5.40;;;;;;;;;;4997029;28;20088;-80
2022/04/04 02:21:01;;;;;;;8.18;5.50;;;;;;;;;;4998643;28;20499;-81
2022/04/04 02:23:28;;;;;;;8.88;5.28;;;;;;;;;;4998611;28;20081;-81
2022/04/04 02:25:56;;;;;;;9.35;5.65;;;;;;;;;;4998260;28;20054;-81
2022/04/04 02:28:23;;;;;;;9.00;5.50;;;;;;;;;;4996699;28;20046;-80
2022/04/04 02:30:51;;;;;;;8.63;5.22;;;;;;;;;;4997036;28;20116;-80
2022/04/04 02:33:20;;;;;;;9.60;5.13;;;;;;;;;;4997301;28;20085;-81
2022/04/04 02:35:50;;;;;;;10.77;5.53;;;;;;;;;;4996098;28;20051;-80
2022/04/04 02:38:17;;;;;;;9.57;5.82;;;;;;;;;;4996856;28;20097;-80
2022/04/04 02:40:44;;;;;;;11.23;6.63;;;;;;;;;;4996631;28;20085;-80
2022/04/04 02:43:11;;;;;;;10.75;5.95;;;;;;;;;;4999320;28;20074;-79
2022/04/04 02:45:38;;;;;;;10.68;6.05;;;;;;;;;;5000679;28;20053;-79
2022/04/04 02:48:06;;;;;;;9.63;5.82;;;;;;;;;;4998788;28;20089;-80
2022/04/04 02:50:35;;;;;;;10.80;5.93;;;;;;;;;;4997208;28;20082;-80
2022/04/04 02:53:02;;;;;;;9.48;6.00;;;;;;;;;;4996794;28;20493;-81
2022/04/04 02:58:13;;;;;;;11.18;6.15;;;;;;;;;;4996364;28;20065;-80
2022/04/04 03:00:40;;;;;;;10.50;6.05;;;;;;;;;;4995683;28;20426;-79
2022/04/04 03:03:07;;;;;;;11.15;6.22;;;;;;;;;;4995980;28;20070;-79
2022/04/04 03:05:36;;;;;;;8.43;5.65;;;;;;;;;;4996297;28;20101;-80
2022/04/04 03:08:04;;;;;;;10.10;5.53;;;;;;;;;;4995899;28;20047;-79
2022/04/04 03:10:31;;;;;;;9.63;6.03;;;;;;;;;;4996591;28;20089;-80
2022/04/04 03:12:59;;;;;;;11.05;5.43;;;;;;;;;;4996289;28;20082;-79
2022/04/04 03:15:26;;;;;;;11.70;5.97;;;;;;;;;;4996123;28;20133;-80
2022/04/04 03:17:55;;;;;;;10.48;5.50;;;;;;;;;;4995944;28;20061;-82
2022/04/04 03:20:24;;;;;;;10.43;5.80;;;;;;;;;;4996079;28;20050;-81
2022/04/04 03:22:54;;;;;;;9.63;5.45;;;;;;;;;;4996149;28;20054;-81
2022/04/04 03:25:21;;;;;;;9.73;5.75;;;;;;;;;;4996088;28;20047;-80
2022/04/04 03:27:48;;;;;;;10.43;5.93;;;;;;;;;;4995219;28;20517;-80
2022/04/04 03:30:18;;;;;;;9.45;5.93;;;;;;;;;;4995536;28;20078;-78
2022/04/04 03:32:45;;;;;;;8.85;5.80;;;;;;;;;;4996896;28;20085;-80
2022/04/04 03:35:14;;;;;;;8.80;5.57;;;;;;;;;;4996165;28;20047;-80
2022/04/04 03:37:42;;;;;;;11.07;6.22;;;;;;;;;;4995802;28;20046;-80
2022/04/04 03:40:13;;;;;;;10.27;6.18;;;;;;;;;;4996417;28;20517;-81
2022/04/04 03:42:40;;;;;;;10.48;6.00;;;;;;;;;;5000111;28;20046;-79
2022/04/04 03:45:08;;;;;;;9.82;6.10;;;;;;;;;;5016396;28;20046;-81
2022/04/04 03:47:35;;;;;;;9.98;6.28;;;;;;;;;;5011647;28;20057;-81
2022/04/04 03:50:02;;;;;;;9.57;6.00;;;;;;;;;;5000231;28;20046;-80
2022/04/04 03:52:28;;;;;;;9.98;5.78;;;;;;;;;;4998010;28;20109;-80
2022/04/04 03:54:55;;;;;;;9.35;5.88;;;;;;;;;;4996756;28;20093;-80
2022/04/04 03:57:23;;;;;;;12.32;6.65;;;;;;;;;;4996440;28;20391;-80
2022/04/04 03:59:51;;;;;;;9.82;5.75;;;;;;;;;;4996227;28;20046;-79
2022/04/04 04:02:18;;;;;;;10.70;6.18;;;;;;;;;;4997423;28;20081;-79
2022/04/04 04:04:44;;;;;;;10.07;5.35;;;;;;;;;;4998874;28;20745;-80
2022/04/04 04:07:15;;;;;;;9.35;5.70;;;;;;;;;;4998896;28;20054;-80
2022/04/04 04:09:42;;;;;;;;;;;;;;;;;;4999682;28;20073;-80
2022/04/04 04:12:10;;;;;;;9.95;5.80;;;;;;;;;;4997981;28;19921;-79
2022/04/04 04:14:38;;;;;;;10.60;6.50;;;;;;;;;;4996891;28;20046;-79
2022/04/04 04:17:06;;;;;;;8.63;5.50;;;;;;;;;;4995366;28;20054;-80
2022/04/04 04:22:17;;;;;;;14.00;6.05;;;;;;;;;;4996973;28;20065;-79
2022/04/04 04:24:44;;;;;;;10.95;5.90;;;;;;;;;;5000745;28;20054;-80
2022/04/04 04:27:11;;;;;;;10.25;6.22;;;;;;;;;;5001283;28;20424;-81
2022/04/04 04:29:39;;;;;;;9.18;5.60;;;;;;;;;;4999556;28;20053;-80
2022/04/04 04:32:07;;;;;;;11.02;6.15;;;;;;;;;;4998653;28;20085;-79
2022/04/04 04:34:34;;;;;;;10.60;6.32;;;;;;;;;;4999157;28;20058;-79
2022/04/04 04:37:01;;;;;;;9.27;5.70;;;;;;;;;;4998238;28;20666;-80
2022/04/04 04:39:28;;;;;;;10.90;6.05;;;;;;;;;;4998263;28;20058;-79
2022/04/04 04:41:55;;;;;;;12.60;6.55;;;;;;;;;;4996120;28;20050;-81
2022/04/04 04:44:23;;;;;;;10.15;5.95;;;;;;;;;;4996615;28;20081;-80
2022/04/04 04:46:53;;;;;;;11.85;6.22;;;;;;;;;;4997858;28;20046;-80
2022/04/04 04:49:20;;;;;;;8.65;5.53;;;;;;;;;;4998623;28;20509;-80
2022/04/04 04:51:46;;;;;;;9.63;5.20;;;;;;;;;;4994862;28;20121;-80
2022/04/04 04:54:13;;;;;;;10.05;5.55;;;;;;;;;;4995097;28;20069;-79
2022/04/04 04:56:40;;;;;;;9.55;5.95;;;;;;;;;;4995306;28;20113;-80
2022/04/04 04:59:07;;;;;;;8.95;5.25;;;;;;;;;;4994977;28;20046;-80
2022/04/04 05:01:33;;;;;;;10.38;5.47;;;;;;;;;;4995382;28;20050;-79
2022/04/04 05:04:01;;;;;;;8.63;5.07;;;;;;;;;;4995236;28;20050;-81
2022/04/04 05:06:28;;;;;;;9.52;5.55;;;;;;;;;;4994921;28;20073;-80
2022/04/04 05:08:58;;;;;;;9.50;4.88;;;;;;;;;;4995389;28;20146;-80
2022/04/04 05:11:24;;;;;;;9.35;5.70;;;;;;;;;;4995035;28;20052;-80
2022/04/04 05:13:51;;;;;;;9.73;5.20;;;;;;;;;;4995126;28;20521;-81
2022/04/04 05:16:18;;;;;;;10.48;5.18;;;;;;;;;;4995229;28;20046;-81
2022/04/04 05:18:45;;;;;;;9.88;5.55;;;;;;;;;;4995170;28;20047;-80
2022/04/04 05:21:13;;;;;;;10.50;5.63;;;;;;;;;;4995443;28;20469;-80
2022/04/04 05:23:41;;;;;;;9.88;5.65;;;;;;;;;;4997668;28;20053;-80
2022/04/04 05:26:08;;;;;;;9.55;5.25;;;;;;;;;;5001756;28;20054;-79
2022/04/04 05:28:34;;;;;;;8.00;4.45;;;;;;;;;;4999870;28;20101;-79
2022/04/04 05:31:04;;;;;;;8.05;4.60;;;;;;;;;;4999822;28;20052;-80
2022/04/04 05:33:30;;;;;;;8.90;4.75;;;;;;;;;;4998195;28;20377;-80
2022/04/04 05:35:57;;;;;;;8.40;4.72;;;;;;;;;;4998249;28;20050;-79
2022/04/04 05:38:25;;;;;;;10.80;4.97;;;;;;;;;;4998718;28;20050;-79
2022/04/04 05:40:52;;;;;;;10.93;5.10;;;;;;;;;;4998675;28;20109;-80
2022/04/04 05:43:19;;;;;;;10.15;4.72;;;;;;;;;;4998450;28;20047;-79
2022/04/04 05:45:48;;;;;;;10.27;4.38;;;;;;;;;;4998105;28;20525;-79
2022/04/04 05:48:15;;;;;;;7.55;4.20;;;;;;;;;;4997816;28;20069;-78
2022/04/04 05:50:42;;;;;;;9.57;4.80;;;;;;;;;;5000017;28;20046;-78
2022/04/04 05:53:09;;;;;;;8.85;4.80;;;;;;;;;;5004562;28;20046;-79
2022/04/04 05:55:37;;;;;;;8.70;4.47;;;;;;;;;;5004037;28;20050;-79
2022/04/04 05:58:04;;;;;;;9.07;4.47;;;;;;;;;;4998721;28;20104;-79
2022/04/04 06:00:31;;;;;;;10.02;5.28;;;;;;;;;;4999421;28;20076;-79
2022/04/04 06:02:57;;;;;;;8.40;4.53;;;;;;;;;;4998428;28;20050;-80
2022/04/04 06:05:24;;;;;;;9.85;4.65;;;;;;;;;;4998897;28;20070;-80
2022/04/04 06:07:51;;;;;;;9.18;5.53;;;;;;;;;;5003271;28;20050;-80
2022/04/04 06:10:18;;;;;;;9.52;5.72;;;;;;;;;;4999653;28;20048;-79
2022/04/04 06:12:46;;;;;;;9.43;5.43;;;;;;;;;;5000159;28;20042;-79
2022/04/04 06:15:15;;;;;;;10.07;5.30;;;;;;;;;;4999639;28;20131;-79
2022/04/04 06:17:42;;;;;;;11.75;6.93;;;;;;;;;;4998739;28;20042;-80
2022/04/04 06:20:10;;;;;;;9.88;5.68;;;;;;;;;;4997693;28;20047;-81
2022/04/04 06:22:37;;;;;;;10.10;6.13;;;;;;;;;;4997886;28;20567;-79
2022/04/04 06:25:05;;;;;;;10.32;5.63;;;;;;;;;;4997586;28;20421;-79
2022/04/04 06:27:32;;;;;;;9.98;5.88;;;;;;;;;;4998248;28;20093;-79
2022/04/04 06:30:00;;;;;;;10.20;5.43;;;;;;;;;;4998024;28;20050;-79
2022/04/04 06:32:27;;;;;;;10.98;5.93;;;;;;;;;;4998052;28;20051;-79
2022/04/04 06:34:54;;;;;;;8.57;5.20;;;;;;;;;;4997317;28;20413;-80
2022/04/04 06:37:20;;;;;;;9.23;5.13;;;;;;;;;;5014853;28;20047;-79
2022/04/04 06:39:47;;;;;;;10.38;5.40;;;;;;;;;;5014594;28;20065;-81
2022/04/04 06:42:14;;;;;;;9.82;5.68;;;;;;;;;;5000556;28;20050;-80
2022/04/04 06:44:42;;;;;;;9.30;5.03;;;;;;;;;;4998890;28;20039;-80
2022/04/04 06:47:10;;;;;;;8.60;5.35;;;;;;;;;;4996867;28;20144;-79
2022/04/04 06:49:37;;;;;;;9.23;5.47;;;;;;;;;;4997960;28;20118;-79
2022/04/04 06:52:05;;;;;;;9.20;4.63;;;;;;;;;;5005540;28;20555;-79
2022/04/04 06:54:32;;;;;;;7.65;4.72;;;;;;;;;;5006905;28;20101;-79
2022/04/04 06:56:59;;;;;;;11.98;5.57;;;;;;;;;;5003624;28;20046;-79
2022/04/04 06:59:26;;;;;;;8.60;5.05;;;;;;;;;;4998479;28;20046;-80
2022/04/04 07:01:52;;;;;;;10.05;5.68;;;;;;;;;;4998020;28;20505;-80
2022/04/04 07:04:20;;;;;;;9.32;5.45;;;;;;;;;;4998026;28;20050;-81
2022/04/04 07:06:47;;;;;;;11.75;7.10;;;;;;;;;;5023307;23;20050;-63
2022/04/04 07:09:14;;;;;;;12.77;5.90;;;;;;;;;;4994834;28;20057;-62
2022/04/04 07:11:41;;;;;;;8.07;4.93;;;;;;;;;;4994217;28;20050;-62
2022/04/04 07:14:10;;;;;;;8.25;5.25;;;;;;;;;;4994051;28;20133;-63
2022/04/04 07:16:37;;;;;;;11.90;5.65;;;;;;;;;;4994572;28;20435;-60
2022/04/04 07:19:04;;;;;;;7.32;4.82;;;;;;;;;;4993943;28;20062;-61
2022/04/04 07:21:32;;;;;;;7.53;4.32;;;;;;;;;;4990021;28;20086;-60
2022/04/04 07:23:59;;;;;;;7.82;4.50;;;;;;;;;;4992024;28;20129;-63
2022/04/04 07:26:26;;;;;;;8.82;4.20;;;;;;;;;;4992097;28;20042;-63
2022/04/04 07:28:54;;;;;;;8.88;4.28;;;;;;;;;;4990410;28;20138;-63
2022/04/04 07:31:21;;;;;;;8.45;4.43;;;;;;;;;;4991868;28;20042;-63
2022/04/04 07:33:48;;;;;;;9.25;5.03;;;;;;;;;;4991642;28;20137;-64
2022/04/04 07:36:16;;;;;;;9.95;4.55;;;;;;;;;;4991662;28;20046;-64
2022/04/04 07:38:44;;;;;;;8.40;4.38;;;;;;;;;;4991910;28;20054;-65
2022/04/04 07:41:11;;;;;;;7.65;4.70;;;;;;;;;;4991509;28;20491;-63
2022/04/04 07:43:38;;;;;;;7.75;4.40;;;;;;;;;;4991425;28;20054;-63
2022/04/04 07:46:05;;;;;;;6.90;4.03;;;;;;;;;;4991664;28;20043;-63
2022/04/04 07:48:32;;;;;;;6.75;4.07;;;;;;;;;;4991430;28;20054;-63
2022/04/04 07:51:00;;;;;;;7.22;4.43;;;;;;;;;;4992512;28;20545;-63
2022/04/04 07:53:26;;;;;;;10.60;5.53;;;;;;;;;;4991434;28;20046;-63
2022/04/04 07:55:55;;;;;;;7.47;3.95;;;;;;;;;;4992032;28;20082;-63
2022/04/04 07:58:22;;;;;;;6.78;4.25;;;;;;;;;;4991801;28;20125;-62
2022/04/04 08:00:49;;;;;;;8.20;4.05;;;;;;;;;;4991684;28;20046;-62
2022/04/04 08:03:16;;;;;;;7.85;4.43;;;;;;;;;;4991837;28;20054;-62
2022/04/04 08:05:43;;;;;;;7.03;4.00;;;;;;;;;;4991178;28;20105;-62
2022/04/04 08:08:10;;;;;;;8.05;4.05;;;;;;;;;;4991377;28;20414;-62
2022/04/04 08:10:37;;;;;;;6.15;3.95;;;;;;;;;;4991437;28;20042;-64
2022/04/04 08:13:06;;;;;;;7.97;3.95;;;;;;;;;;4991261;28;20507;-63
2022/04/04 08:15:33;;;;;;;6.75;3.72;;;;;;;;;;4991261;28;20081;-63
2022/04/04 08:18:02;;;;;;;6.45;3.50;;;;;;;;;;4991529;28;20077;-63
2022/04/04 08:20:29;;;;;;;5.32;3.40;;;;;;;;;;4991504;28;20438;-63
2022/04/04 08:22:56;;;;;;;7.00;3.60;;;;;;;;;;4991595;28;20588;-64
2022/04/04 08:25:23;;;;;;;8.10;3.45;;;;;;;;;;4990820;28;20134;-63
2022/04/04 08:27:51;;;;;;;4.75;2.88;;;;;;;;;;4991142;28;20081;-64
2022/04/04 08:30:19;;;;;;;5.70;3.78;;;;;;;;;;4990919;28;20495;-63
2022/04/04 08:32:46;;;;;;;9.48;3.78;;;;;;;;;;4991529;28;20476;-63
2022/04/04 08:35:15;;;;;;;13.93;6.80;;;;;;;;;;4991309;28;20042;-63
2022/04/04 08:37:43;;;;;;;10.05;5.63;;;;;;;;;;4991095;28;20161;-61
2022/04/04 08:40:12;;;;;;;7.57;4.30;;;;;;;;;;4990636;28;20066;-63
2022/04/04 08:42:40;;;;;;;5.95;3.72;;;;;;;;;;4991160;28;20061;-64
2022/04/04 08:45:08;;;;;;;6.18;3.60;;;;;;;;;;4990955;28;20126;-64
2022/04/04 08:47:37;;;;;;;6.20;3.67;;;;;;;;;;4991180;28;20050;-63
2022/04/04 08:50:04;;;;;;;6.10;3.38;;;;;;;;;;4990804;28;20050;-62
2022/04/04 08:52:32;;;;;;;5.97;3.28;;;;;;;;;;4990836;28;20089;-63
2022/04/04 08:54:59;;;;;;;6.63;3.60;;;;;;;;;;4990819;28;20046;-62
2022/04/04 08:57:26;;;;;;;5.78;3.53;;;;;;;;;;4990769;28;20077;-62
2022/04/04 08:59:53;;;;;;;6.35;4.00;;;;;;;;;;4994575;28;20415;-65
2022/04/04 09:02:20;;;;;;;6.28;3.67;;;;;;;;;;4994557;28;20077;-65
2022/04/04 09:04:53;;;;;;;7.18;3.85;;;;;;;;;;4995118;28;20054;-64
2022/04/04 09:07:22;;;;;;;6.43;3.35;;;;;;;;;;4994349;28;20046;-65
2022/04/04 09:09:51;;;;;;;7.05;4.20;;;;;;;;;;4994653;28;20529;-65
2022/04/04 09:12:19;;;;;;;6.63;3.55;;;;;;;;;;4995614;28;20046;-65
2022/04/04 09:14:48;;;;;;;7.40;3.95;;;;;;;;;;4994757;28;20085;-65
2022/04/04 09:17:16;;;;;;;7.88;4.40;;;;;;;;;;4994425;28;20054;-64
2022/04/04 09:19:44;;;;;;;7.10;4.20;;;;;;;;;;4994411;28;20050;-65
2022/04/04 09:22:14;;;;;;;6.20;3.92;;;;;;;;;;4994190;28;20479;-63
2022/04/04 09:24:46;;;;;;;6.85;4.15;;;;;;;;;;4994646;28;20061;-63
2022/04/04 09:27:16;;;;;;;6.82;4.00;;;;;;;;;;4994058;28;20090;-63
2022/04/04 09:29:45;;;;;;;6.53;4.13;;;;;;;;;;4994617;28;20062;-64
2022/04/04 09:32:15;;;;;;;8.52;4.38;;;;;;;;;;4994433;28;20065;-64
2022/04/04 09:35:08;;;;;;;7.07;4.43;;;;;;;;;;4993943;28;20054;-63
2022/04/04 09:37:38;;;;;;;7.13;4.25;;;;;;;;;;4993638;28;20058;-65
2022/04/04 09:40:12;;;;;;;7.05;4.53;;;;;;;;;;4993992;28;20052;-63
2022/04/04 09:42:39;;;;;;;7.93;4.43;;;;;;;;;;4994350;28;20058;-61
2022/04/04 09:45:09;;;;;;;8.20;5.85;;;;;;;;;;4993814;28;20054;-64
2022/04/04 09:47:47;;;;;;;8.80;4.57;;;;;;;;;;4994061;28;20046;-61
2022/04/04 09:50:30;;;;;;;7.55;4.53;;;;;;;;;;4994091;28;20056;-63
2022/04/04 09:52:59;;;;;;;8.70;4.55;;;;;;;;;;4993922;28;20054;-63
2022/04/04 09:55:30;;;;;;;8.48;4.43;;;;;;;;;;4994296;28;20506;-63
2022/04/04 09:57:59;;;;;;;7.93;5.15;;;;;;;;;;4993720;28;20047;-63
2022/04/04 10:00:27;;;;;;;9.48;4.97;;;;;;;;;;4993746;28;20046;-64
2022/04/04 10:02:57;;;;;;;9.63;5.25;;;;;;;;;;4993707;28;20061;-63
2022/04/04 10:05:25;;;;;;;6.93;4.40;;;;;;;;;;4993932;28;20046;-63
2022/04/04 10:07:55;;;;;;;9.05;5.40;;;;;;;;;;4993696;28;20049;-62
2022/04/04 10:10:26;;;;;;;8.93;5.13;;;;;;;;;;4993665;28;20442;-63
2022/04/04 10:12:53;;;;;;;9.95;4.90;;;;;;;;;;4993583;28;20280;-65
2022/04/04 10:15:21;;;;;;;7.97;4.40;;;;;;;;;;4993338;28;20445;-65
2022/04/04 10:17:49;;;;;;;9.57;5.35;;;;;;;;;;4993876;28;20042;-63
2022/04/04 10:20:16;;;;;;;8.02;4.68;;;;;;;;;;4993789;28;20175;-61
2022/04/04 10:22:45;;;;;;;8.00;5.03;;;;;;;;;;4993099;28;20066;-64
2022/04/04 10:25:14;;;;;;;7.93;4.43;;;;;;;;;;4992630;28;20462;-64
2022/04/04 10:27:46;;;;;;;9.00;4.72;;;;;;;;;;4992921;28;20054;-64
2022/04/04 10:30:15;;;;;;;8.43;5.05;;;;;;;;;;4992455;28;20120;-65
2022/04/04 10:32:50;;;;;;;9.07;6.05;;;;;;;;;;4993077;28;20054;-63
2022/04/04 10:35:21;;;;;;;8.98;5.35;;;;;;;;;;4992551;28;20046;-63
2022/04/04 10:37:48;;;;;;;11.68;5.55;;;;;;;;;;4992630;28;20093;-62
2022/04/04 10:40:23;;;;;;;11.75;5.55;;;;;;;;;;4992207;28;20502;-64
2022/04/04 10:43:11;;;;;;;11.75;5.82;;;;;;;;;;4992757;28;20054;-63
2022/04/04 10:45:52;;;;;;;10.15;5.45;;;;;;;;;;4992034;28;20510;-64
2022/04/04 10:48:20;;;;;;;9.73;5.22;;;;;;;;;;4991829;28;20512;-63
2022/04/04 10:50:47;;;;;;;11.05;6.05;;;;;;;;;;4991251;28;20062;-63
2022/04/04 10:53:14;;;;;;;9.18;5.65;;;;;;;;;;4992055;28;20046;-64
2022/04/04 10:55:49;;;;;;;10.00;6.35;;;;;;;;;;4992047;28;20089;-64
2022/04/04 10:58:25;;;;;;;10.32;6.30;;;;;;;;;;4992478;28;20411;-64
2022/04/04 11:01:01;;;;;;;9.70;5.45;;;;;;;;;;4992142;28;20054;-66
2022/04/04 11:03:30;;;;;;;11.60;7.13;;;;;;;;;;4992210;28;20046;-68
2022/04/04 11:09:06;;;;;;;11.77;6.45;;;;;;;;;;4992002;28;20551;-67
2022/04/04 11:11:45;;;;;;;10.20;5.82;;;;;;;;;;4991560;28;20056;-70
2022/04/04 11:14:13;;;;;;;9.18;5.53;;;;;;;;;;4992059;28;20069;-67
2022/04/04 11:17:30;;;;;;;10.85;5.80;;;;;;;;;;4992041;28;20524;-68
2022/04/04 11:20:03;;;;;;;11.20;6.43;;;;;;;;;;4990338;28;20462;-64
2022/04/04 11:22:33;;;;;;;10.63;6.03;;;;;;;;;;4990750;28;20051;-63
2022/04/04 11:25:03;;;;;;;11.18;6.45;;;;;;;;;;4991295;28;20404;-65
2022/04/04 11:27:33;;;;;;;12.40;6.20;;;;;;;;;;4991432;28;20128;-62
2022/04/04 11:30:05;;;;;;;10.30;5.90;;;;;;;;;;4991963;28;20057;-63
2022/04/04 11:32:34;;;;;;;9.55;5.80;;;;;;;;;;4992119;28;20133;-62
2022/04/04 11:35:07;;;;;;;9.77;6.10;;;;;;;;;;4991287;28;20055;-65
2022/04/04 11:37:42;;;;;;;11.82;5.65;;;;;;;;;;4991549;28;20515;-65
2022/04/04 11:40:14;;;;;;;10.88;6.10;;;;;;;;;;4991331;28;20050;-63
2022/04/04 11:42:44;;;;;;;10.32;6.07;;;;;;;;;;4991410;28;20108;-63
2022/04/04 11:45:16;;;;;;;9.63;5.72;;;;;;;;;;4991366;28;20065;-63
2022/04/04 11:47:50;;;;;;;10.52;6.20;;;;;;;;;;4991163;28;20046;-61
2022/04/04 11:50:17;;;;;;;9.48;6.20;;;;;;;;;;4991199;28;20046;-64
2022/04/04 11:52:53;;;;;;;10.82;6.05;;;;;;;;;;4991522;28;20536;-64
2022/04/04 11:55:22;;;;;;;10.68;6.22;;;;;;;;;;4990822;28;20053;-63
2022/04/04 11:57:51;;;;;;;10.18;6.47;;;;;;;;;;4991174;28;20050;-63
2022/04/04 12:00:23;;;;;;;10.27;7.53;;;;;;;;;;4991308;28;20076;-63
2022/04/04 12:02:50;;;;;;;10.20;6.80;;;;;;;;;;4990743;28;20054;-64
2022/04/04 12:05:22;;;;;;;9.30;5.97;;;;;;;;;;4991081;28;20500;-64
2022/04/04 12:07:50;;;;;;;10.82;6.18;;;;;;;;;;4991047;28;20490;-63
2022/04/04 12:10:25;;;;;;;16.08;7.10;;;;;;;;;;4991407;28;20050;-64
2022/04/04 12:12:58;;;;;;;9.75;5.97;;;;;;;;;;4990990;28;20051;-64
2022/04/04 12:15:29;;;;;;;10.68;6.57;;;;;;;;;;4991160;28;20479;-62
2022/04/04 12:17:56;;;;;;;10.25;6.20;;;;;;;;;;4990831;28;20050;-62
2022/04/04 12:20:23;;;;;;;10.65;6.82;;;;;;;;;;4991048;28;20050;-64
2022/04/04 12:25:35;;;;;;;11.15;7.68;;;;;;;;;;4990964;28;20483;-64
2022/04/04 12:28:04;;;;;;;12.55;7.35;;;;;;;;;;4990556;28;20049;-62
2022/04/04 12:30:35;;;;;;;11.35;7.03;;;;;;;;;;4990810;28;20043;-63
2022/04/04 12:33:13;;;;;;;9.38;6.25;;;;;;;;;;4991046;28;20058;-64
2022/04/04 12:35:42;;;;;;;10.98;7.28;;;;;;;;;;4994648;28;20467;-64
2022/04/04 12:38:09;;;;;;;10.40;6.63;;;;;;;;;;4994651;28;20042;-62
2022/04/04 12:40:37;;;;;;;11.13;7.15;;;;;;;;;;4994981;28;20054;-63
2022/04/04 12:43:10;;;;;;;10.65;7.35;;;;;;;;;;4993995;28;20054;-64
2022/04/04 12:45:47;;;;;;;14.40;8.13;;;;;;;;;;4993781;28;20507;-64
2022/04/04 12:48:14;;;;;;;11.98;7.78;;;;;;;;;;4994697;28;20046;-64
2022/04/04 12:50:43;;;;;;;11.63;7.75;;;;;;;;;;4994416;28;20050;-64
2022/04/04 12:53:12;;;;;;;11.32;7.65;;;;;;;;;;4994476;28;20049;-64
2022/04/04 12:55:40;;;;;;;13.32;7.68;;;;;;;;;;4994273;28;20053;-64
2022/04/04 12:58:25;;;;;;;11.65;8.40;;;;;;;;;;4994090;28;20046;-63
2022/04/04 13:00:55;;;;;;;14.27;7.97;;;;;;;;;;4994377;28;20053;-62
2022/04/04 13:03:24;;;;;;;13.60;8.35;;;;;;;;;;4994241;28;20082;-64
2022/04/04 13:05:53;;;;;;;13.38;8.52;;;;;;;;;;4994075;28;20414;-63
2022/04/04 13:08:22;;;;;;;11.75;7.93;;;;;;;;;;4994013;28;20043;-63
2022/04/04 13:11:06;;;;;;;12.30;8.27;;;;;;;;;;4994644;28;20116;-64
2022/04/04 13:13:34;;;;;;;13.32;8.32;;;;;;;;;;4994480;28;20046;-66
2022/04/04 13:16:03;;;;;;;12.98;8.90;;;;;;;;;;4993980;28;20092;-63
2022/04/04 13:18:30;;;;;;;13.05;8.95;;;;;;;;;;4994081;28;20050;-62
2022/04/04 13:20:57;;;;;;;13.55;8.75;;;;;;;;;;4994187;28;20141;-63
2022/04/04 13:23:24;;;;;;;13.68;8.25;;;;;;;;;;4994368;28;20376;-63
2022/04/04 13:25:51;;;;;;;13.57;9.10;;;;;;;;;;4993459;28;20050;-63
2022/04/04 13:28:18;;;;;;;12.82;8.27;;;;;;;;;;4994162;28;20059;-62
2022/04/04 13:30:46;;;;;;;13.40;8.63;;;;;;;;;;4993875;28;20042;-62
2022/04/04 13:33:14;;;;;;;15.52;8.32;;;;;;;;;;4993806;28;20053;-63
2022/04/04 13:35:41;;;;;;;14.98;8.88;;;;;;;;;;4993763;28;20434;-64
2022/04/04 13:38:08;;;;;;;14.23;9.43;;;;;;;;;;4993773;28;20130;-63
2022/04/04 13:40:35;;;;;;;13.20;9.50;;;;;;;;;;4993920;28;20193;-65
2022/04/04 13:43:02;;;;;;;13.40;9.13;;;;;;;;;;4993638;28;20057;-63
2022/04/04 13:45:29;;;;;;;13.55;8.90;;;;;;;;;;4993164;28;20069;-62
2022/04/04 13:47:56;;;;;;;14.75;8.75;;;;;;;;;;4993554;28;20218;-63
2022/04/04 13:50:24;;;;;;;12.82;9.40;;;;;;;;;;4992007;28;20077;-64
2022/04/04 13:52:51;;;;;;;11.90;8.10;;;;;;;;;;4993549;28;20050;-62
2022/04/04 13:55:18;;;;;;;12.70;8.93;;;;;;;;;;4993123;28;20065;-64
2022/04/04 13:57:45;;;;;;;12.48;8.30;;;;;;;;;;4993552;28;20050;-64
2022/04/04 14:00:14;;;;;;;12.95;8.75;;;;;;;;;;4993069;28;20634;-65
2022/04/04 14:02:43;;;;;;;11.98;8.45;;;;;;;;;;4993701;28;20087;-63
2022/04/04 14:05:12;;;;;;;14.23;8.98;;;;;;;;;;4993334;28;20061;-63
2022/04/04 14:07:41;;;;;;;12.55;8.73;;;;;;;;;;4993438;28;20054;-63
2022/04/04 14:10:09;;;;;;;11.65;8.60;;;;;;;;;;4993001;28;20431;-64
2022/04/04 14:12:36;;;;;;;14.10;8.57;;;;;;;;;;4993228;28;20051;-65
2022/04/04 14:15:06;;;;;;;11.38;8.07;;;;;;;;;;4993009;28;20050;-64
2022/04/04 14:17:35;;;;;;;12.57;8.52;;;;;;;;;;4992901;28;20347;-62
2022/04/04 14:20:03;;;;;;;13.65;8.18;;;;;;;;;;4993140;28;20054;-65
2022/04/04 14:22:30;;;;;;;10.38;7.50;;;;;;;;;;4993141;28;20526;-63
2022/04/04 14:24:58;;;;;;;14.63;9.15;;;;;;;;;;4992581;28;20142;-64
2022/04/04 14:27:25;;;;;;;13.90;8.95;;;;;;;;;;4992530;28;20081;-65
2022/04/04 14:29:52;;;;;;;11.00;8.20;;;;;;;;;;4992691;28;20049;-65
2022/04/04 14:32:20;;;;;;;11.80;8.57;;;;;;;;;;4992733;28;20492;-64
2022/04/04 14:34:46;;;;;;;12.25;7.70;;;;;;;;;;4992461;28;20046;-64
2022/04/04 14:37:14;;;;;;;9.80;7.30;;;;;;;;;;4992532;28;20050;-64
2022/04/04 14:39:43;;;;;;;11.98;8.25;;;;;;;;;;4992598;28;20050;-64
2022/04/04 14:42:13;;;;;;;10.20;6.85;;;;;;;;;;4993041;28;20549;-64
2022/04/04 14:44:41;;;;;;;9.88;7.32;;;;;;;;;;4992644;28;20046;-64
2022/04/04 14:47:08;;;;;;;13.23;8.60;;;;;;;;;;4992754;28;20293;-65
2022/04/04 14:49:35;;;;;;;13.27;8.38;;;;;;;;;;4992217;28;20047;-65
2022/04/04 14:52:02;;;;;;;10.65;8.30;;;;;;;;;;4992315;28;20047;-64
2022/04/04 14:54:30;;;;;;;10.70;7.82;;;;;;;;;;4992170;28;20046;-63